createdAt,value
2018-07-30T00:02:04.393Z,2.50
2018-07-30T00:06:58.966Z,2.77
2018-07-30T00:11:53.469Z,2.50
2018-07-30T00:16:47.940Z,2.57
2018-07-30T00:21:42.829Z,2.60
2018-07-30T00:26:37.315Z,2.63
2018-07-30T00:31:31.821Z,3.00
2018-07-30T00:36:28.860Z,2.60
2018-07-30T00:41:23.822Z,2.20
2018-07-30T00:46:18.399Z,2.80
2018-07-30T00:51:12.730Z,2.80
2018-07-30T00:56:07.174Z,2.67
2018-07-30T01:01:01.810Z,3.20
2018-07-30T01:05:56.349Z,2.70
2018-07-30T01:10:51.123Z,2.87
2018-07-30T01:15:46.466Z,2.73
2018-07-30T01:20:40.844Z,2.77
2018-07-30T01:25:36.111Z,2.93
2018-07-30T01:30:30.814Z,2.77
2018-07-30T01:35:25.576Z,2.70
2018-07-30T01:40:20.143Z,2.47
2018-07-30T01:45:14.677Z,3.00
2018-07-30T01:50:09.257Z,2.60
2018-07-30T01:55:03.807Z,2.70
2018-07-30T01:59:58.240Z,3.00
2018-07-30T02:04:52.921Z,2.80
2018-07-30T02:09:48.257Z,2.80
2018-07-30T02:14:42.748Z,3.53
2018-07-30T02:19:37.258Z,2.80
2018-07-30T02:24:32.056Z,3.00
2018-07-30T02:29:26.951Z,3.00
2018-07-30T02:34:22.203Z,2.87
2018-07-30T02:39:16.842Z,2.97
2018-07-30T02:44:11.512Z,3.10
2018-07-30T02:49:06.949Z,3.20
2018-07-30T02:54:01.522Z,2.83
2018-07-30T02:58:56.197Z,3.00
2018-07-30T03:03:50.880Z,3.13
2018-07-30T03:08:45.671Z,3.23
2018-07-30T03:13:41.017Z,3.00
2018-07-30T03:18:35.514Z,3.10
2018-07-30T03:23:30.140Z,2.50
2018-07-30T03:28:24.621Z,3.03
2018-07-30T03:33:19.051Z,3.23
2018-07-30T03:38:13.505Z,2.80
2018-07-30T03:43:08.324Z,3.43
2018-07-30T03:48:03.164Z,3.30
2018-07-30T03:52:57.642Z,3.13
2018-07-30T03:57:52.183Z,3.27
2018-07-30T04:02:47.613Z,3.13
2018-07-30T04:07:42.435Z,3.50
2018-07-30T04:12:36.960Z,2.90
2018-07-30T04:17:31.741Z,3.10
2018-07-30T04:22:26.193Z,3.20
2018-07-30T04:27:20.477Z,2.90
2018-07-30T04:32:15.283Z,3.23
2018-07-30T04:37:09.794Z,3.90
2018-07-30T04:42:04.404Z,3.43
2018-07-30T04:46:58.905Z,3.47
2018-07-30T04:51:53.422Z,3.50
2018-07-30T04:56:47.792Z,3.90
2018-07-30T05:01:42.819Z,3.57
2018-07-30T05:06:37.793Z,3.43
2018-07-30T05:11:32.324Z,3.57
2018-07-30T05:16:27.337Z,3.03
2018-07-30T05:21:21.765Z,3.40
2018-07-30T05:26:16.577Z,4.20
2018-07-30T05:31:11.154Z,4.27
2018-07-30T05:36:05.924Z,3.50
2018-07-30T05:41:00.082Z,3.60
2018-07-30T05:45:54.532Z,3.67
2018-07-30T05:50:49.249Z,3.50
2018-07-30T05:55:43.983Z,3.70
2018-07-30T06:00:38.515Z,3.13
2018-07-30T06:05:33.301Z,3.00
2018-07-30T06:10:28.656Z,2.93
2018-07-30T06:15:23.594Z,2.73
2018-07-30T06:20:18.600Z,2.67
2018-07-30T06:25:13.345Z,3.23
2018-07-30T06:30:08.650Z,3.20
2018-07-30T06:35:05.180Z,3.00
2018-07-30T06:40:00.056Z,3.03
2018-07-30T06:44:54.995Z,3.10
2018-07-30T06:49:49.884Z,3.07
2018-07-30T06:54:44.605Z,2.97
2018-07-30T06:59:39.488Z,3.00
2018-07-30T07:04:34.338Z,2.90
2018-07-30T07:09:29.123Z,3.23
2018-07-30T07:14:23.836Z,3.33
2018-07-30T07:19:18.671Z,3.50
2018-07-30T07:24:13.468Z,3.17
2018-07-30T07:29:08.478Z,3.67
2018-07-30T07:34:04.073Z,3.20
2018-07-30T07:38:58.714Z,3.20
2018-07-30T07:43:54.353Z,2.73
2018-07-30T07:48:49.166Z,3.00
2018-07-30T07:53:43.884Z,2.97
2018-07-30T07:58:39.295Z,3.00
2018-07-30T08:03:34.270Z,3.10
2018-07-30T08:08:29.223Z,3.03
2018-07-30T08:13:23.986Z,2.70
2018-07-30T08:18:18.940Z,2.90
2018-07-30T08:23:13.961Z,3.20
2018-07-30T08:28:08.892Z,3.03
2018-07-30T08:33:04.256Z,2.67
2018-07-30T08:37:59.164Z,2.43
2018-07-30T08:42:53.919Z,2.40
2018-07-30T08:47:48.385Z,2.47
2018-07-30T08:52:43.340Z,2.33
2018-07-30T08:57:37.942Z,2.40
2018-07-30T09:02:32.898Z,2.17
2018-07-30T09:07:27.692Z,2.50
2018-07-30T09:12:22.475Z,2.23
2018-07-30T09:17:17.392Z,2.27
2018-07-30T09:22:12.446Z,2.27
2018-07-30T09:27:07.636Z,2.90
2018-07-30T09:32:07.122Z,2.47
2018-07-30T09:37:01.877Z,2.60
2018-07-30T09:41:56.424Z,2.37
2018-07-30T09:46:51.312Z,2.13
2018-07-30T09:51:46.058Z,2.70
2018-07-30T09:56:41.800Z,2.50
2018-07-30T10:01:36.632Z,2.37
2018-07-30T10:06:31.712Z,2.20
2018-07-30T10:11:26.633Z,2.60
2018-07-30T10:16:25.373Z,2.97
2018-07-30T10:21:20.100Z,2.63
2018-07-30T10:26:14.998Z,2.37
2018-07-30T10:31:10.185Z,2.73
2018-07-30T10:36:04.920Z,2.60
2018-07-30T10:40:59.640Z,2.60
2018-07-30T10:45:54.568Z,2.70
2018-07-30T10:50:49.386Z,2.83
2018-07-30T10:55:44.134Z,2.87
2018-07-30T11:00:38.642Z,2.73
2018-07-30T11:05:33.148Z,2.97
2018-07-30T11:10:27.882Z,2.83
2018-07-30T11:15:22.475Z,2.73
2018-07-30T11:20:16.914Z,2.93
2018-07-30T11:25:11.822Z,2.90
2018-07-30T11:30:07.306Z,2.90
2018-07-30T11:35:02.053Z,3.00
2018-07-30T11:39:56.858Z,2.50
2018-07-30T11:44:51.761Z,3.00
2018-07-30T11:49:46.450Z,3.10
2018-07-30T11:54:41.181Z,2.67
2018-07-30T11:59:35.756Z,2.90
2018-07-30T12:04:30.733Z,2.80
2018-07-30T12:09:25.651Z,2.63
2018-07-30T12:14:20.396Z,2.80
2018-07-30T12:19:15.110Z,2.93
2018-07-30T12:24:09.842Z,2.73
2018-07-30T12:29:04.753Z,2.80
2018-07-30T12:33:59.540Z,2.93
2018-07-30T12:38:54.248Z,3.20
2018-07-30T12:43:49.425Z,2.57
2018-07-30T12:48:44.156Z,2.37
2018-07-30T12:53:39.069Z,2.60
2018-07-30T12:58:34.055Z,2.70
2018-07-30T13:03:28.584Z,2.60
2018-07-30T13:08:23.314Z,2.80
2018-07-30T13:13:18.245Z,2.57
2018-07-30T13:18:13.274Z,2.33
2018-07-30T13:23:08.237Z,2.40
2018-07-30T13:28:03.003Z,2.40
2018-07-30T13:32:58.284Z,2.90
2018-07-30T13:37:53.163Z,3.10
2018-07-30T13:42:47.899Z,2.80
2018-07-30T13:47:42.402Z,2.50
2018-07-30T13:52:37.169Z,2.80
2018-07-30T13:57:32.086Z,2.60
2018-07-30T14:02:27.116Z,2.63
2018-07-30T14:07:22.004Z,2.60
2018-07-30T14:12:16.822Z,2.50
2018-07-30T14:17:11.539Z,2.90
2018-07-30T14:22:06.602Z,2.50
2018-07-30T14:27:01.515Z,2.40
2018-07-30T14:31:56.344Z,2.47
2018-07-30T14:36:51.165Z,2.67
2018-07-30T14:41:46.380Z,2.50
2018-07-30T14:46:41.600Z,2.73
2018-07-30T14:51:36.390Z,3.50
2018-07-30T14:56:31.829Z,2.57
2018-07-30T15:01:26.345Z,2.60
2018-07-30T15:06:21.349Z,2.50
2018-07-30T15:11:15.902Z,2.37
2018-07-30T15:16:10.788Z,2.43
2018-07-30T15:21:05.548Z,2.77
2018-07-30T15:26:00.488Z,2.67
2018-07-30T15:30:55.381Z,2.50
2018-07-30T15:35:59.544Z,2.70
2018-07-30T15:40:54.290Z,2.20
2018-07-30T15:45:49.412Z,2.40
2018-07-30T15:50:44.289Z,2.70
2018-07-30T15:55:39.034Z,2.53
2018-07-30T16:00:34.258Z,2.40
2018-07-30T16:05:29.084Z,2.10
2018-07-30T16:10:24.208Z,2.20
2018-07-30T16:15:19.136Z,2.40
2018-07-30T16:20:14.195Z,2.37
2018-07-30T16:25:08.698Z,2.43
2018-07-30T16:30:03.751Z,2.57
2018-07-30T16:34:58.474Z,2.50
2018-07-30T16:39:53.853Z,2.30
2018-07-30T16:44:48.405Z,4.53
2018-07-30T16:49:44.194Z,2.43
2018-07-30T16:54:38.926Z,2.40
2018-07-30T16:59:34.689Z,2.33
2018-07-30T17:04:29.588Z,2.70
2018-07-30T17:09:24.817Z,2.40
2018-07-30T17:14:21.427Z,2.23
2018-07-30T17:19:16.258Z,2.40
2018-07-30T17:24:11.018Z,2.70
2018-07-30T17:29:05.898Z,2.90
2018-07-30T17:34:00.979Z,2.40
2018-07-30T17:38:55.936Z,2.60
2018-07-30T17:43:50.854Z,2.50
2018-07-30T17:48:46.031Z,2.40
2018-07-30T17:53:40.734Z,2.57
2018-07-30T17:58:35.646Z,2.50
2018-07-30T18:03:30.670Z,2.40
2018-07-30T18:08:25.418Z,2.77
2018-07-30T18:13:20.148Z,2.30
2018-07-30T18:18:16.582Z,2.53
2018-07-30T18:23:11.543Z,2.60
2018-07-30T18:28:06.356Z,2.87
2018-07-30T18:33:01.309Z,2.90
2018-07-30T18:37:56.340Z,2.77
2018-07-30T18:42:50.954Z,2.67
2018-07-30T18:47:45.594Z,2.50
2018-07-30T18:52:40.680Z,2.43
2018-07-30T18:57:36.139Z,2.63
2018-07-30T19:02:32.464Z,2.70
2018-07-30T19:07:29.205Z,2.90
2018-07-30T19:12:25.219Z,2.77
2018-07-30T19:17:20.678Z,3.23
2018-07-30T19:22:21.266Z,2.43
2018-07-30T19:27:18.069Z,3.00
2018-07-30T19:32:14.674Z,2.80
2018-07-30T19:37:11.011Z,2.80
2018-07-30T19:42:09.217Z,2.90
2018-07-30T19:47:06.673Z,2.80
2018-07-30T19:52:04.205Z,2.80
2018-07-30T19:57:00.280Z,2.70
2018-07-30T20:01:56.687Z,2.70
2018-07-30T20:06:52.905Z,2.87
2018-07-30T20:11:49.076Z,2.53
2018-07-30T20:16:45.117Z,3.00
2018-07-30T20:21:48.166Z,2.43
2018-07-30T20:26:44.329Z,2.57
2018-07-30T20:31:41.432Z,2.77
2018-07-30T20:36:37.138Z,3.07
2018-07-30T20:41:33.549Z,3.43
2018-07-30T20:46:29.599Z,3.83
2018-07-30T20:51:24.821Z,3.97
2018-07-30T20:56:20.510Z,4.00
2018-07-30T21:01:15.478Z,3.83
2018-07-30T21:06:10.507Z,4.00
2018-07-30T21:11:07.363Z,4.17
2018-07-30T21:16:03.776Z,3.97
2018-07-30T21:20:59.204Z,4.10
2018-07-30T21:25:54.883Z,4.17
2018-07-30T21:30:49.957Z,4.53
2018-07-30T21:35:45.261Z,4.70
2018-07-30T21:40:40.137Z,4.10
2018-07-30T21:45:34.959Z,4.33
2018-07-30T21:50:30.540Z,5.30
2018-07-30T21:55:25.788Z,4.20
2018-07-30T22:00:25.233Z,4.10
2018-07-30T22:05:20.828Z,4.40
2018-07-30T22:10:15.966Z,4.10
2018-07-30T22:15:13.383Z,3.50
2018-07-30T22:20:09.884Z,2.90
2018-07-30T22:25:04.397Z,3.27
2018-07-30T22:30:00.304Z,2.77
2018-07-30T22:34:55.062Z,2.77
2018-07-30T22:39:50.821Z,3.00
2018-07-30T22:44:45.622Z,2.77
2018-07-30T22:49:40.919Z,2.60
2018-07-30T22:54:35.637Z,2.57
2018-07-30T22:59:30.588Z,2.57
2018-07-30T23:04:25.078Z,2.58
2018-07-30T23:09:19.820Z,2.60
2018-07-30T23:14:14.056Z,2.40
2018-07-30T23:19:08.689Z,2.30
2018-07-30T23:24:11.679Z,2.63
2018-07-30T23:29:06.180Z,2.60
2018-07-30T23:34:00.649Z,2.57
2018-07-30T23:38:55.205Z,2.63
2018-07-30T23:43:50.979Z,2.20
2018-07-30T23:48:45.957Z,2.43
2018-07-30T23:53:40.436Z,2.50
2018-07-30T23:58:35.018Z,2.53
